sensor_id;sensor_type;location;lat;lon;timestamp;pressure;altitude;pressure_sealevel;temperature;humidity
47753;BME280;2038;51.728;6.674;2022-07-29T00:01:37;100966.84;;;19.86;71.37
47753;BME280;2038;51.728;6.674;2022-07-29T00:04:03;100971.91;;;19.83;71.81
47753;BME280;2038;51.728;6.674;2022-07-29T00:06:30;100965.91;;;19.84;71.60
47753;BME280;2038;51.728;6.674;2022-07-29T00:08:56;100964.78;;;19.76;71.61
47753;BME280;2038;51.728;6.674;2022-07-29T00:11:22;100957.75;;;19.72;72.13
47753;BME280;2038;51.728;6.674;2022-07-29T00:13:48;100958.50;;;19.68;72.71
47753;BME280;2038;51.728;6.674;2022-07-29T00:16:15;100950.50;;;19.60;72.59
47753;BME280;2038;51.728;6.674;2022-07-29T00:18:41;100952.13;;;19.58;72.92
47753;BME280;2038;51.728;6.674;2022-07-29T00:21:07;100950.34;;;19.55;73.10
47753;BME280;2038;51.728;6.674;2022-07-29T00:23:33;100948.41;;;19.48;73.10
47753;BME280;2038;51.728;6.674;2022-07-29T00:26:00;100947.44;;;19.45;73.90
47753;BME280;2038;51.728;6.674;2022-07-29T00:28:26;100945.09;;;19.52;73.14
47753;BME280;2038;51.728;6.674;2022-07-29T00:30:52;100947.44;;;19.46;73.69
47753;BME280;2038;51.728;6.674;2022-07-29T00:33:18;100939.50;;;19.42;73.59
47753;BME280;2038;51.728;6.674;2022-07-29T00:35:44;100936.13;;;19.43;73.69
47753;BME280;2038;51.728;6.674;2022-07-29T00:38:15;100930.22;;;19.45;73.66
47753;BME280;2038;51.728;6.674;2022-07-29T00:40:44;100930.97;;;19.43;74.01
47753;BME280;2038;51.728;6.674;2022-07-29T00:43:13;100923.22;;;19.43;73.87
47753;BME280;2038;51.728;6.674;2022-07-29T00:45:41;100920.44;;;19.38;73.87
47753;BME280;2038;51.728;6.674;2022-07-29T00:48:07;100909.09;;;19.33;74.33
47753;BME280;2038;51.728;6.674;2022-07-29T00:50:35;100909.09;;;19.33;74.23
47753;BME280;2038;51.728;6.674;2022-07-29T00:53:04;100907.28;;;19.31;74.10
47753;BME280;2038;51.728;6.674;2022-07-29T00:55:33;100909.91;;;19.32;73.95
47753;BME280;2038;51.728;6.674;2022-07-29T00:58:00;100903.03;;;19.33;74.19
47753;BME280;2038;51.728;6.674;2022-07-29T01:00:29;100905.38;;;19.25;74.02
47753;BME280;2038;51.728;6.674;2022-07-29T01:02:55;100897.56;;;19.24;74.27
47753;BME280;2038;51.728;6.674;2022-07-29T01:05:24;100900.16;;;19.24;74.14
47753;BME280;2038;51.728;6.674;2022-07-29T01:07:54;100899.91;;;19.16;75.10
47753;BME280;2038;51.728;6.674;2022-07-29T01:10:22;100898.22;;;19.18;74.94
47753;BME280;2038;51.728;6.674;2022-07-29T01:12:51;100905.22;;;19.21;74.91
47753;BME280;2038;51.728;6.674;2022-07-29T01:15:20;100899.97;;;19.17;74.89
47753;BME280;2038;51.728;6.674;2022-07-29T01:18:16;100893.75;;;19.12;75.02
47753;BME280;2038;51.728;6.674;2022-07-29T01:21:10;100891.84;;;19.07;74.88
47753;BME280;2038;51.728;6.674;2022-07-29T01:24:44;100882.28;;;19.04;75.50
47753;BME280;2038;51.728;6.674;2022-07-29T01:30:24;100883.84;;;18.99;75.07
47753;BME280;2038;51.728;6.674;2022-07-29T01:32:58;100883.69;;;18.95;75.55
47753;BME280;2038;51.728;6.674;2022-07-29T01:35:38;100880.22;;;18.94;75.66
47753;BME280;2038;51.728;6.674;2022-07-29T01:38:17;100875.00;;;18.93;75.70
47753;BME280;2038;51.728;6.674;2022-07-29T01:41:05;100886.09;;;18.90;75.92
47753;BME280;2038;51.728;6.674;2022-07-29T01:43:53;100887.72;;;18.87;75.46
47753;BME280;2038;51.728;6.674;2022-07-29T01:46:38;100881.78;;;18.89;75.48
47753;BME280;2038;51.728;6.674;2022-07-29T01:49:14;100889.72;;;18.95;75.22
47753;BME280;2038;51.728;6.674;2022-07-29T01:51:52;100884.63;;;18.97;75.66
47753;BME280;2038;51.728;6.674;2022-07-29T01:54:57;100889.53;;;18.89;75.57
47753;BME280;2038;51.728;6.674;2022-07-29T01:57:31;100887.81;;;18.90;76.19
47753;BME280;2038;51.728;6.674;2022-07-29T02:00:03;100886.06;;;18.89;76.09
47753;BME280;2038;51.728;6.674;2022-07-29T02:02:33;100877.28;;;18.84;76.14
47753;BME280;2038;51.728;6.674;2022-07-29T02:05:02;100874.59;;;18.81;76.03
47753;BME280;2038;51.728;6.674;2022-07-29T02:07:34;100862.41;;;18.77;76.25
47753;BME280;2038;51.728;6.674;2022-07-29T02:10:05;100865.66;;;18.71;76.76
47753;BME280;2038;51.728;6.674;2022-07-29T02:12:34;100870.78;;;18.69;76.95
47753;BME280;2038;51.728;6.674;2022-07-29T02:15:04;100869.56;;;18.60;76.94
47753;BME280;2038;51.728;6.674;2022-07-29T02:17:39;100875.00;;;18.67;76.96
47753;BME280;2038;51.728;6.674;2022-07-29T02:20:09;100874.28;;;18.72;76.67
47753;BME280;2038;51.728;6.674;2022-07-29T02:22:38;100879.28;;;18.67;76.71
47753;BME280;2038;51.728;6.674;2022-07-29T02:25:07;100875.88;;;18.68;77.04
47753;BME280;2038;51.728;6.674;2022-07-29T02:27:35;100872.47;;;18.69;76.75
47753;BME280;2038;51.728;6.674;2022-07-29T02:30:05;100873.22;;;18.66;77.21
47753;BME280;2038;51.728;6.674;2022-07-29T02:32:35;100872.41;;;18.67;76.91
47753;BME280;2038;51.728;6.674;2022-07-29T02:35:06;100875.88;;;18.68;77.42
47753;BME280;2038;51.728;6.674;2022-07-29T02:37:35;100887.13;;;18.70;77.66
47753;BME280;2038;51.728;6.674;2022-07-29T02:40:02;100889.66;;;18.68;77.71
47753;BME280;2038;51.728;6.674;2022-07-29T02:42:32;100891.53;;;18.73;78.04
47753;BME280;2038;51.728;6.674;2022-07-29T02:45:01;100911.38;;;18.74;78.25
47753;BME280;2038;51.728;6.674;2022-07-29T02:47:34;100931.28;;;18.78;78.35
47753;BME280;2038;51.728;6.674;2022-07-29T02:50:28;100952.09;;;18.57;78.87
47753;BME280;2038;51.728;6.674;2022-07-29T02:53:09;100955.47;;;18.56;78.59
47753;BME280;2038;51.728;6.674;2022-07-29T02:55:51;100939.22;;;18.58;78.98
47753;BME280;2038;51.728;6.674;2022-07-29T02:58:26;100940.97;;;18.59;78.58
47753;BME280;2038;51.728;6.674;2022-07-29T03:01:11;100944.84;;;18.48;79.17
47753;BME280;2038;51.728;6.674;2022-07-29T03:03:42;100947.47;;;18.50;79.42
47753;BME280;2038;51.728;6.674;2022-07-29T03:06:13;100951.09;;;18.53;78.79
47753;BME280;2038;51.728;6.674;2022-07-29T03:08:43;100963.81;;;18.50;78.88
47753;BME280;2038;51.728;6.674;2022-07-29T03:11:11;100958.63;;;18.49;79.53
47753;BME280;2038;51.728;6.674;2022-07-29T03:13:39;100954.59;;;18.55;78.80
47753;BME280;2038;51.728;6.674;2022-07-29T03:16:08;100950.31;;;18.56;78.87
47753;BME280;2038;51.728;6.674;2022-07-29T03:18:36;100938.22;;;18.55;79.00
47753;BME280;2038;51.728;6.674;2022-07-29T03:21:03;100935.75;;;18.58;79.48
47753;BME280;2038;51.728;6.674;2022-07-29T03:23:30;100932.44;;;18.62;79.49
47753;BME280;2038;51.728;6.674;2022-07-29T03:25:57;100935.03;;;18.62;79.63
47753;BME280;2038;51.728;6.674;2022-07-29T03:28:23;100936.63;;;18.58;79.43
47753;BME280;2038;51.728;6.674;2022-07-29T03:30:50;100927.16;;;18.57;79.96
47753;BME280;2038;51.728;6.674;2022-07-29T03:33:16;100927.00;;;18.54;80.02
47753;BME280;2038;51.728;6.674;2022-07-29T03:35:43;100933.03;;;18.53;80.93
47753;BME280;2038;51.728;6.674;2022-07-29T03:38:09;100928.47;;;18.48;82.39
47753;BME280;2038;51.728;6.674;2022-07-29T03:40:54;100924.81;;;18.41;82.82
47753;BME280;2038;51.728;6.674;2022-07-29T03:43:25;100918.47;;;18.33;83.13
47753;BME280;2038;51.728;6.674;2022-07-29T03:46:00;100914.75;;;18.25;83.80
47753;BME280;2038;51.728;6.674;2022-07-29T03:48:31;100917.97;;;18.19;84.34
47753;BME280;2038;51.728;6.674;2022-07-29T03:51:01;100924.41;;;18.08;84.84
47753;BME280;2038;51.728;6.674;2022-07-29T03:53:27;100924.25;;;18.04;85.08
47753;BME280;2038;51.728;6.674;2022-07-29T03:55:57;100923.16;;;17.97;86.47
47753;BME280;2038;51.728;6.674;2022-07-29T03:58:27;100917.13;;;17.98;85.94
47753;BME280;2038;51.728;6.674;2022-07-29T04:00:56;100912.56;;;17.91;85.83
47753;BME280;2038;51.728;6.674;2022-07-29T04:03:23;100910.09;;;17.94;85.37
47753;BME280;2038;51.728;6.674;2022-07-29T04:06:07;100913.38;;;17.90;85.19
47753;BME280;2038;51.728;6.674;2022-07-29T04:08:34;100905.44;;;17.84;85.10
47753;BME280;2038;51.728;6.674;2022-07-29T04:11:01;100903.56;;;17.80;85.85
47753;BME280;2038;51.728;6.674;2022-07-29T04:13:28;100891.06;;;17.68;86.65
47753;BME280;2038;51.728;6.674;2022-07-29T04:15:55;100889.13;;;17.63;86.84
47753;BME280;2038;51.728;6.674;2022-07-29T04:18:21;100897.34;;;17.54;87.02
47753;BME280;2038;51.728;6.674;2022-07-29T04:20:48;100900.41;;;17.46;87.25
47753;BME280;2038;51.728;6.674;2022-07-29T04:23:14;100902.06;;;17.44;88.52
47753;BME280;2038;51.728;6.674;2022-07-29T04:25:42;100902.75;;;17.40;88.61
47753;BME280;2038;51.728;6.674;2022-07-29T04:28:09;100908.81;;;17.40;88.38
47753;BME280;2038;51.728;6.674;2022-07-29T04:30:37;100900.00;;;17.35;87.74
47753;BME280;2038;51.728;6.674;2022-07-29T04:33:05;100916.53;;;17.40;87.63
47753;BME280;2038;51.728;6.674;2022-07-29T04:35:35;100932.00;;;17.40;87.80
47753;BME280;2038;51.728;6.674;2022-07-29T04:38:03;100950.22;;;17.45;88.07
47753;BME280;2038;51.728;6.674;2022-07-29T04:40:31;100956.56;;;17.53;88.63
47753;BME280;2038;51.728;6.674;2022-07-29T04:43:02;100965.31;;;17.56;89.22
47753;BME280;2038;51.728;6.674;2022-07-29T04:45:28;100962.66;;;17.55;89.37
47753;BME280;2038;51.728;6.674;2022-07-29T04:47:55;100967.94;;;17.58;89.07
47753;BME280;2038;51.728;6.674;2022-07-29T04:50:21;100962.66;;;17.55;89.23
47753;BME280;2038;51.728;6.674;2022-07-29T04:52:48;100970.03;;;17.66;89.01
47753;BME280;2038;51.728;6.674;2022-07-29T04:55:15;100970.97;;;17.68;89.21
47753;BME280;2038;51.728;6.674;2022-07-29T04:57:41;100964.69;;;17.62;88.81
47753;BME280;2038;51.728;6.674;2022-07-29T05:00:08;100969.44;;;17.73;88.30
47753;BME280;2038;51.728;6.674;2022-07-29T05:02:35;100964.44;;;17.76;87.91
47753;BME280;2038;51.728;6.674;2022-07-29T05:05:01;100973.75;;;17.73;88.36
47753;BME280;2038;51.728;6.674;2022-07-29T05:07:27;100977.13;;;17.72;88.16
47753;BME280;2038;51.728;6.674;2022-07-29T05:09:53;100972.69;;;17.68;88.89
47753;BME280;2038;51.728;6.674;2022-07-29T05:12:23;100972.56;;;17.65;90.11
47753;BME280;2038;51.728;6.674;2022-07-29T05:14:50;100972.22;;;17.57;90.18
47753;BME280;2038;51.728;6.674;2022-07-29T05:17:16;100965.03;;;17.50;90.34
47753;BME280;2038;51.728;6.674;2022-07-29T05:19:42;100950.91;;;17.41;91.21
47753;BME280;2038;51.728;6.674;2022-07-29T05:22:08;100946.50;;;17.38;91.80
47753;BME280;2038;51.728;6.674;2022-07-29T05:24:35;100939.75;;;17.42;91.50
47753;BME280;2038;51.728;6.674;2022-07-29T05:27:01;100917.41;;;17.41;92.57
47753;BME280;2038;51.728;6.674;2022-07-29T05:29:27;100896.16;;;17.25;93.59
47753;BME280;2038;51.728;6.674;2022-07-29T05:31:53;100880.16;;;17.12;94.55
47753;BME280;2038;51.728;6.674;2022-07-29T05:34:20;100886.13;;;17.11;95.54
47753;BME280;2038;51.728;6.674;2022-07-29T05:36:46;100889.94;;;17.00;96.10
47753;BME280;2038;51.728;6.674;2022-07-29T05:39:12;100899.66;;;16.86;96.57
47753;BME280;2038;51.728;6.674;2022-07-29T05:41:39;100903.81;;;16.82;96.54
47753;BME280;2038;51.728;6.674;2022-07-29T05:44:06;100897.66;;;16.79;97.09
47753;BME280;2038;51.728;6.674;2022-07-29T05:46:32;100908.63;;;16.75;97.86
47753;BME280;2038;51.728;6.674;2022-07-29T05:48:58;100898.75;;;16.65;100.00
47753;BME280;2038;51.728;6.674;2022-07-29T05:51:25;100896.25;;;16.66;100.00
47753;BME280;2038;51.728;6.674;2022-07-29T05:53:51;100901.50;;;16.50;100.00
47753;BME280;2038;51.728;6.674;2022-07-29T05:56:17;100906.78;;;16.53;100.00
47753;BME280;2038;51.728;6.674;2022-07-29T05:58:43;100908.91;;;16.62;100.00
47753;BME280;2038;51.728;6.674;2022-07-29T06:01:09;100915.00;;;16.64;100.00
47753;BME280;2038;51.728;6.674;2022-07-29T06:03:36;100916.91;;;16.68;100.00
47753;BME280;2038;51.728;6.674;2022-07-29T06:06:03;100919.94;;;16.78;100.00
47753;BME280;2038;51.728;6.674;2022-07-29T06:08:31;100918.44;;;16.83;100.00
47753;BME280;2038;51.728;6.674;2022-07-29T06:11:00;100918.44;;;16.83;100.00
47753;BME280;2038;51.728;6.674;2022-07-29T06:13:26;100920.34;;;16.88;99.84
47753;BME280;2038;51.728;6.674;2022-07-29T06:15:53;100927.41;;;16.93;99.92
47753;BME280;2038;51.728;6.674;2022-07-29T06:18:19;100919.78;;;16.95;100.00
47753;BME280;2038;51.728;6.674;2022-07-29T06:20:46;100925.19;;;17.01;100.00
47753;BME280;2038;51.728;6.674;2022-07-29T06:23:13;100919.28;;;17.03;100.00
47753;BME280;2038;51.728;6.674;2022-07-29T06:25:40;100910.75;;;17.04;100.00
47753;BME280;2038;51.728;6.674;2022-07-29T06:28:07;100902.88;;;17.01;100.00
47753;BME280;2038;51.728;6.674;2022-07-29T06:30:33;100899.75;;;17.08;100.00
47753;BME280;2038;51.728;6.674;2022-07-29T06:32:59;100896.31;;;17.08;100.00
47753;BME280;2038;51.728;6.674;2022-07-29T06:35:27;100893.72;;;17.08;100.00
47753;BME280;2038;51.728;6.674;2022-07-29T06:37:54;100879.69;;;17.01;100.00
47753;BME280;2038;51.728;6.674;2022-07-29T06:40:20;100876.56;;;16.88;100.00
47753;BME280;2038;51.728;6.674;2022-07-29T06:43:05;100874.69;;;16.83;100.00
47753;BME280;2038;51.728;6.674;2022-07-29T06:45:34;100877.06;;;16.79;100.00
47753;BME280;2038;51.728;6.674;2022-07-29T06:48:01;100874.41;;;16.77;100.00
47753;BME280;2038;51.728;6.674;2022-07-29T06:50:27;100868.31;;;16.75;100.00
47753;BME280;2038;51.728;6.674;2022-07-29T06:52:53;100870.34;;;16.82;100.00
47753;BME280;2038;51.728;6.674;2022-07-29T06:55:19;100871.97;;;16.80;100.00
47753;BME280;2038;51.728;6.674;2022-07-29T06:57:46;100869.78;;;16.90;100.00
47753;BME280;2038;51.728;6.674;2022-07-29T07:00:13;100871.47;;;16.89;100.00
47753;BME280;2038;51.728;6.674;2022-07-29T07:02:39;100876.44;;;16.84;100.00
47753;BME280;2038;51.728;6.674;2022-07-29T07:05:06;100879.81;;;16.83;100.00
47753;BME280;2038;51.728;6.674;2022-07-29T07:07:32;100879.81;;;16.83;100.00
47753;BME280;2038;51.728;6.674;2022-07-29T07:09:59;100882.72;;;16.91;100.00
47753;BME280;2038;51.728;6.674;2022-07-29T07:12:25;100893.22;;;16.96;100.00
47753;BME280;2038;51.728;6.674;2022-07-29T07:14:51;100899.69;;;17.07;100.00
47753;BME280;2038;51.728;6.674;2022-07-29T07:17:17;100902.69;;;17.17;100.00
47753;BME280;2038;51.728;6.674;2022-07-29T07:19:44;100908.88;;;17.21;100.00
47753;BME280;2038;51.728;6.674;2022-07-29T07:22:11;100906.81;;;17.33;100.00
47753;BME280;2038;51.728;6.674;2022-07-29T07:24:37;100914.53;;;17.33;100.00
47753;BME280;2038;51.728;6.674;2022-07-29T07:27:03;100930.22;;;17.39;100.00
47753;BME280;2038;51.728;6.674;2022-07-29T07:29:29;100942.53;;;17.25;100.00
47753;BME280;2038;51.728;6.674;2022-07-29T07:31:56;100944.41;;;17.29;100.00
47753;BME280;2038;51.728;6.674;2022-07-29T07:34:23;100946.25;;;17.32;100.00
47753;BME280;2038;51.728;6.674;2022-07-29T07:36:49;100950.44;;;17.30;100.00
47753;BME280;2038;51.728;6.674;2022-07-29T07:39:15;100963.34;;;17.30;100.00
47753;BME280;2038;51.728;6.674;2022-07-29T07:41:42;100981.63;;;17.36;100.00
47753;BME280;2038;51.728;6.674;2022-07-29T07:44:08;100996.78;;;17.28;100.00
47753;BME280;2038;51.728;6.674;2022-07-29T07:46:34;101018.31;;;17.30;100.00
47753;BME280;2038;51.728;6.674;2022-07-29T07:49:00;101025.81;;;17.24;100.00
47753;BME280;2038;51.728;6.674;2022-07-29T07:51:26;101009.84;;;17.33;100.00
47753;BME280;2038;51.728;6.674;2022-07-29T07:53:53;101008.09;;;17.32;100.00
47753;BME280;2038;51.728;6.674;2022-07-29T07:56:19;101026.06;;;17.30;100.00
47753;BME280;2038;51.728;6.674;2022-07-29T07:58:45;101026.84;;;17.29;100.00
47753;BME280;2038;51.728;6.674;2022-07-29T08:01:12;101018.13;;;17.26;100.00
47753;BME280;2038;51.728;6.674;2022-07-29T08:03:38;101018.00;;;17.23;100.00
47753;BME280;2038;51.728;6.674;2022-07-29T08:06:05;101016.72;;;17.33;100.00
47753;BME280;2038;51.728;6.674;2022-07-29T08:08:32;101011.59;;;17.34;100.00
47753;BME280;2038;51.728;6.674;2022-07-29T08:10:58;101017.59;;;17.33;100.00
47753;BME280;2038;51.728;6.674;2022-07-29T08:13:26;101023.44;;;17.29;100.00
47753;BME280;2038;51.728;6.674;2022-07-29T08:15:57;101012.44;;;17.33;100.00
47753;BME280;2038;51.728;6.674;2022-07-29T08:18:30;101005.72;;;17.37;100.00
47753;BME280;2038;51.728;6.674;2022-07-29T08:20:57;101004.88;;;17.38;100.00
47753;BME280;2038;51.728;6.674;2022-07-29T08:23:24;101000.00;;;17.44;100.00
47753;BME280;2038;51.728;6.674;2022-07-29T08:25:52;100996.66;;;17.46;100.00
47753;BME280;2038;51.728;6.674;2022-07-29T08:28:19;100996.66;;;17.46;100.00
47753;BME280;2038;51.728;6.674;2022-07-29T08:30:45;100993.97;;;17.43;100.00
47753;BME280;2038;51.728;6.674;2022-07-29T08:33:11;100986.09;;;17.40;100.00
47753;BME280;2038;51.728;6.674;2022-07-29T08:35:39;100981.25;;;17.48;100.00
47753;BME280;2038;51.728;6.674;2022-07-29T08:38:05;100980.19;;;17.43;100.00
47753;BME280;2038;51.728;6.674;2022-07-29T08:40:32;100986.34;;;17.46;100.00
47753;BME280;2038;51.728;6.674;2022-07-29T08:42:59;100991.88;;;17.55;100.00
47753;BME280;2038;51.728;6.674;2022-07-29T08:45:35;100991.34;;;17.62;100.00
47753;BME280;2038;51.728;6.674;2022-07-29T08:48:08;101007.06;;;17.68;100.00
47753;BME280;2038;51.728;6.674;2022-07-29T08:50:36;101004.69;;;17.54;100.00
47753;BME280;2038;51.728;6.674;2022-07-29T08:53:04;101016.47;;;17.47;100.00
47753;BME280;2038;51.728;6.674;2022-07-29T08:55:33;101015.97;;;17.56;100.00
47753;BME280;2038;51.728;6.674;2022-07-29T08:58:00;101004.03;;;17.58;100.00
47753;BME280;2038;51.728;6.674;2022-07-29T09:00:27;100998.88;;;17.58;100.00
47753;BME280;2038;51.728;6.674;2022-07-29T09:02:57;101004.22;;;17.62;100.00
47753;BME280;2038;51.728;6.674;2022-07-29T09:05:26;101002.53;;;17.63;100.00
47753;BME280;2038;51.728;6.674;2022-07-29T09:07:54;100999.47;;;17.71;100.00
47753;BME280;2038;51.728;6.674;2022-07-29T09:10:21;100994.22;;;17.70;100.00
47753;BME280;2038;51.728;6.674;2022-07-29T09:12:47;100987.56;;;17.75;100.00
47753;BME280;2038;51.728;6.674;2022-07-29T09:15:14;100985.94;;;17.77;100.00
47753;BME280;2038;51.728;6.674;2022-07-29T09:17:46;100977.63;;;17.84;100.00
47753;BME280;2038;51.728;6.674;2022-07-29T09:20:20;100981.91;;;17.84;100.00
47753;BME280;2038;51.728;6.674;2022-07-29T09:22:48;100976.75;;;17.84;100.00
47753;BME280;2038;51.728;6.674;2022-07-29T09:25:40;100972.03;;;17.73;100.00
47753;BME280;2038;51.728;6.674;2022-07-29T09:28:14;100968.63;;;17.74;100.00
47753;BME280;2038;51.728;6.674;2022-07-29T09:30:56;100974.59;;;17.73;100.00
47753;BME280;2038;51.728;6.674;2022-07-29T09:33:34;100966.94;;;17.75;100.00
47753;BME280;2038;51.728;6.674;2022-07-29T09:36:06;100960.59;;;17.67;100.00
47753;BME280;2038;51.728;6.674;2022-07-29T09:38:34;100964.06;;;17.67;100.00
47753;BME280;2038;51.728;6.674;2022-07-29T09:41:04;100964.66;;;17.60;100.00
47753;BME280;2038;51.728;6.674;2022-07-29T09:43:31;100971.97;;;17.72;100.00
47753;BME280;2038;51.728;6.674;2022-07-29T09:46:13;100978.06;;;17.74;100.00
47753;BME280;2038;51.728;6.674;2022-07-29T09:48:40;100977.44;;;17.80;100.00
47753;BME280;2038;51.728;6.674;2022-07-29T09:51:17;100977.34;;;17.76;100.00
47753;BME280;2038;51.728;6.674;2022-07-29T09:53:45;100978.63;;;17.88;100.00
47753;BME280;2038;51.728;6.674;2022-07-29T09:56:11;100975.25;;;17.89;100.00
47753;BME280;2038;51.728;6.674;2022-07-29T09:58:37;100978.28;;;18.01;100.00
47753;BME280;2038;51.728;6.674;2022-07-29T10:01:03;100969.72;;;18.02;100.00
47753;BME280;2038;51.728;6.674;2022-07-29T10:03:29;100970.78;;;18.07;100.00
47753;BME280;2038;51.728;6.674;2022-07-29T10:06:09;100965.91;;;18.14;100.00
47753;BME280;2038;51.728;6.674;2022-07-29T10:08:37;100969.72;;;18.24;100.00
47753;BME280;2038;51.728;6.674;2022-07-29T10:11:16;100970.44;;;18.20;100.00
47753;BME280;2038;51.728;6.674;2022-07-29T10:13:46;100977.75;;;18.32;100.00
47753;BME280;2038;51.728;6.674;2022-07-29T10:16:15;100982.75;;;18.27;100.00
47753;BME280;2038;51.728;6.674;2022-07-29T10:18:43;100975.47;;;18.39;100.00
47753;BME280;2038;51.728;6.674;2022-07-29T10:21:10;100970.09;;;18.33;100.00
47753;BME280;2038;51.728;6.674;2022-07-29T10:23:37;100973.47;;;18.32;100.00
47753;BME280;2038;51.728;6.674;2022-07-29T10:26:04;100969.41;;;18.39;100.00
47753;BME280;2038;51.728;6.674;2022-07-29T10:28:31;100976.75;;;18.50;100.00
47753;BME280;2038;51.728;6.674;2022-07-29T10:31:05;100980.47;;;18.57;100.00
47753;BME280;2038;51.728;6.674;2022-07-29T10:34:02;100970.34;;;18.63;100.00
47753;BME280;2038;51.728;6.674;2022-07-29T10:36:54;100975.16;;;18.76;100.00
47753;BME280;2038;51.728;6.674;2022-07-29T10:40:03;100971.16;;;18.86;100.00
47753;BME280;2038;51.728;6.674;2022-07-29T10:42:54;100978.88;;;18.84;100.00
47753;BME280;2038;51.728;6.674;2022-07-29T10:45:27;100979.16;;;18.92;100.00
47753;BME280;2038;51.728;6.674;2022-07-29T10:48:05;100984.81;;;19.05;100.00
47753;BME280;2038;51.728;6.674;2022-07-29T10:50:58;100982.34;;;19.34;100.00
47753;BME280;2038;51.728;6.674;2022-07-29T10:53:51;100976.34;;;19.60;100.00
47753;BME280;2038;51.728;6.674;2022-07-29T10:56:29;100979.56;;;19.80;100.00
47753;BME280;2038;51.728;6.674;2022-07-29T11:01:48;100977.28;;;19.89;100.00
47753;BME280;2038;51.728;6.674;2022-07-29T11:07:11;100982.84;;;20.01;100.00
47753;BME280;2038;51.728;6.674;2022-07-29T11:09:38;100983.59;;;20.25;100.00
47753;BME280;2038;51.728;6.674;2022-07-29T11:12:46;100976.38;;;20.42;100.00
47753;BME280;2038;51.728;6.674;2022-07-29T11:15:14;100987.09;;;20.54;100.00
47753;BME280;2038;51.728;6.674;2022-07-29T11:20:37;100981.00;;;20.83;100.00
47753;BME280;2038;51.728;6.674;2022-07-29T11:23:28;100986.06;;;21.10;100.00
47753;BME280;2038;51.728;6.674;2022-07-29T11:26:13;100994.84;;;21.15;97.97
47753;BME280;2038;51.728;6.674;2022-07-29T11:29:19;100989.72;;;21.17;97.75
47753;BME280;2038;51.728;6.674;2022-07-29T11:31:51;100988.16;;;21.23;96.37
47753;BME280;2038;51.728;6.674;2022-07-29T11:34:32;100985.84;;;21.34;97.30
47753;BME280;2038;51.728;6.674;2022-07-29T11:47:41;100983.66;;;21.85;97.54
47753;BME280;2038;51.728;6.674;2022-07-29T11:50:34;100989.16;;;21.97;97.87
47753;BME280;2038;51.728;6.674;2022-07-29T11:53:09;100977.25;;;22.07;96.38
47753;BME280;2038;51.728;6.674;2022-07-29T11:55:39;100984.31;;;22.12;95.79
47753;BME280;2038;51.728;6.674;2022-07-29T11:58:06;100979.28;;;22.20;97.29
47753;BME280;2038;51.728;6.674;2022-07-29T12:00:34;100974.91;;;22.17;96.74
47753;BME280;2038;51.728;6.674;2022-07-29T12:03:05;100979.16;;;22.14;95.64
47753;BME280;2038;51.728;6.674;2022-07-29T12:08:18;100980.47;;;22.35;95.17
47753;BME280;2038;51.728;6.674;2022-07-29T12:10:50;100984.03;;;22.39;95.45
47753;BME280;2038;51.728;6.674;2022-07-29T12:13:19;100989.25;;;22.40;93.26
47753;BME280;2038;51.728;6.674;2022-07-29T12:15:56;100993.56;;;22.40;93.67
47753;BME280;2038;51.728;6.674;2022-07-29T12:18:24;101001.41;;;22.42;92.68
47753;BME280;2038;51.728;6.674;2022-07-29T12:20:57;101003.78;;;22.32;92.56
47753;BME280;2038;51.728;6.674;2022-07-29T12:23:25;100998.66;;;22.35;92.05
47753;BME280;2038;51.728;6.674;2022-07-29T12:25:52;101003.91;;;22.37;93.47
47753;BME280;2038;51.728;6.674;2022-07-29T12:28:18;101006.75;;;22.49;91.62
47753;BME280;2038;51.728;6.674;2022-07-29T12:30:47;101009.47;;;22.55;90.89
47753;BME280;2038;51.728;6.674;2022-07-29T12:35:53;101001.66;;;22.54;91.58
47753;BME280;2038;51.728;6.674;2022-07-29T12:38:22;101007.75;;;22.56;89.63
47753;BME280;2038;51.728;6.674;2022-07-29T12:40:49;101002.50;;;22.53;83.59
47753;BME280;2038;51.728;6.674;2022-07-29T12:43:20;101006.03;;;22.56;84.69
47753;BME280;2038;51.728;6.674;2022-07-29T12:45:49;101006.81;;;22.51;82.88
47753;BME280;2038;51.728;6.674;2022-07-29T12:48:32;101006.03;;;22.55;83.72
47753;BME280;2038;51.728;6.674;2022-07-29T12:51:07;101004.16;;;22.49;83.71
47753;BME280;2038;51.728;6.674;2022-07-29T12:53:35;101004.09;;;22.46;83.42
47753;BME280;2038;51.728;6.674;2022-07-29T12:56:04;100996.41;;;22.51;83.56
47753;BME280;2038;51.728;6.674;2022-07-29T13:01:11;101011.38;;;22.62;84.20
47753;BME280;2038;51.728;6.674;2022-07-29T13:03:55;101002.06;;;22.72;84.44
47753;BME280;2038;51.728;6.674;2022-07-29T13:06:42;100996.19;;;22.80;84.39
47753;BME280;2038;51.728;6.674;2022-07-29T13:09:18;101000.69;;;22.89;84.50
47753;BME280;2038;51.728;6.674;2022-07-29T13:11:53;101008.53;;;22.92;84.60
47753;BME280;2038;51.728;6.674;2022-07-29T13:14:34;101007.69;;;22.93;84.30
47753;BME280;2038;51.728;6.674;2022-07-29T13:17:19;101015.41;;;22.89;83.99
47753;BME280;2038;51.728;6.674;2022-07-29T13:20:03;101006.06;;;22.98;84.66
47753;BME280;2038;51.728;6.674;2022-07-29T13:22:38;101001.81;;;23.03;84.55
47753;BME280;2038;51.728;6.674;2022-07-29T13:25:06;100999.44;;;23.14;84.41
47753;BME280;2038;51.728;6.674;2022-07-29T13:27:34;101012.00;;;23.39;83.79
47753;BME280;2038;51.728;6.674;2022-07-29T13:30:04;101010.28;;;23.40;82.91
47753;BME280;2038;51.728;6.674;2022-07-29T13:32:33;101001.47;;;23.30;83.61
47753;BME280;2038;51.728;6.674;2022-07-29T13:35:03;101004.09;;;23.33;83.72
47753;BME280;2038;51.728;6.674;2022-07-29T13:37:32;101001.50;;;23.33;83.21
47753;BME280;2038;51.728;6.674;2022-07-29T13:40:01;100997.13;;;23.30;83.49
47753;BME280;2038;51.728;6.674;2022-07-29T13:42:29;101001.47;;;23.30;84.24
47753;BME280;2038;51.728;6.674;2022-07-29T13:44:55;100999.75;;;23.32;84.50